createdAt,value
2018-10-06T00:00:01.073Z,1025.33060673
2018-10-06T00:00:13.258Z,1025.33060673
2018-10-06T00:00:25.606Z,1025.33060673
2018-10-06T00:00:37.784Z,1025.33060673
2018-10-06T00:00:49.979Z,1025.33060673
2018-10-06T00:01:02.164Z,1025.33060673
2018-10-06T00:01:14.312Z,1025.33060673
2018-10-06T00:01:26.541Z,1025.33060673
2018-10-06T00:01:38.709Z,1025.33060673
2018-10-06T00:01:50.873Z,1025.33060673
2018-10-06T00:02:03.041Z,1025.33060673
2018-10-06T00:02:15.242Z,1025.33060673
2018-10-06T00:02:27.448Z,1025.33060673
2018-10-06T00:02:39.622Z,1025.33060673
2018-10-06T00:02:51.803Z,1025.33060673
2018-10-06T00:03:04.005Z,1025.36447061
2018-10-06T00:03:16.194Z,1025.36447061
2018-10-06T00:03:28.438Z,1025.36447061
2018-10-06T00:03:40.596Z,1025.36447061
2018-10-06T00:03:53.168Z,1025.36447061
2018-10-06T00:04:05.347Z,1025.36447061
2018-10-06T00:04:17.524Z,1025.36447061
2018-10-06T00:04:29.676Z,1025.36447061
2018-10-06T00:04:41.843Z,1025.36447061
2018-10-06T00:04:54.004Z,1025.36447061
2018-10-06T00:05:06.311Z,1025.39833449
2018-10-06T00:05:18.481Z,1025.39833449
2018-10-06T00:05:30.663Z,1025.39833449
2018-10-06T00:05:42.880Z,1025.39833449
2018-10-06T00:05:55.056Z,1025.39833449
2018-10-06T00:06:07.221Z,1025.43219837
2018-10-06T00:06:19.384Z,1025.43219837
2018-10-06T00:06:31.549Z,1025.43219837
2018-10-06T00:06:43.747Z,1025.43219837
2018-10-06T00:06:55.890Z,1025.43219837
2018-10-06T00:07:08.090Z,1025.39833449
2018-10-06T00:07:20.237Z,1025.39833449
2018-10-06T00:07:32.372Z,1025.39833449
2018-10-06T00:07:44.579Z,1025.39833449
2018-10-06T00:07:56.754Z,1025.39833449
2018-10-06T00:08:08.967Z,1025.36447061
2018-10-06T00:08:21.124Z,1025.36447061
2018-10-06T00:08:33.352Z,1025.36447061
2018-10-06T00:08:45.504Z,1025.36447061
2018-10-06T00:08:57.740Z,1025.36447061
2018-10-06T00:09:09.884Z,1025.39833449
2018-10-06T00:09:22.039Z,1025.39833449
2018-10-06T00:09:34.382Z,1025.39833449
2018-10-06T00:09:46.547Z,1025.39833449
2018-10-06T00:09:58.707Z,1025.29674284
2018-10-06T00:10:10.863Z,1025.29674284
2018-10-06T00:10:23.038Z,1025.29674284
2018-10-06T00:10:35.233Z,1025.29674284
2018-10-06T00:10:47.383Z,1025.29674284
2018-10-06T00:10:59.561Z,1025.29674284
2018-10-06T00:11:11.734Z,1025.29674284
2018-10-06T00:11:23.868Z,1025.29674284
2018-10-06T00:11:36.043Z,1025.29674284
2018-10-06T00:11:48.213Z,1025.29674284
2018-10-06T00:12:00.400Z,1025.36447061
2018-10-06T00:12:12.569Z,1025.36447061
2018-10-06T00:12:24.741Z,1025.36447061
2018-10-06T00:12:36.904Z,1025.36447061
2018-10-06T00:12:49.196Z,1025.36447061
2018-10-06T00:13:01.374Z,1025.29674284
2018-10-06T00:13:13.558Z,1025.29674284
2018-10-06T00:13:25.710Z,1025.29674284
2018-10-06T00:13:37.924Z,1025.29674284
2018-10-06T00:13:50.076Z,1025.29674284
2018-10-06T00:14:02.246Z,1025.29674284
2018-10-06T00:14:14.396Z,1025.29674284
2018-10-06T00:14:26.553Z,1025.29674284
2018-10-06T00:14:38.911Z,1025.29674284
2018-10-06T00:14:51.064Z,1025.29674284
2018-10-06T00:15:03.214Z,1025.26287896
2018-10-06T00:15:15.387Z,1025.26287896
2018-10-06T00:15:27.575Z,1025.26287896
2018-10-06T00:15:39.752Z,1025.26287896
2018-10-06T00:15:51.941Z,1025.26287896
2018-10-06T00:16:04.128Z,1025.1951512
2018-10-06T00:16:16.387Z,1025.1951512
2018-10-06T00:16:28.539Z,1025.1951512
2018-10-06T00:16:40.710Z,1025.1951512
2018-10-06T00:16:52.852Z,1025.1951512
2018-10-06T00:17:04.999Z,1025.16128732
2018-10-06T00:17:17.769Z,1025.16128732
2018-10-06T00:17:29.931Z,1025.16128732
2018-10-06T00:17:42.077Z,1025.16128732
2018-10-06T00:17:54.274Z,1025.16128732
2018-10-06T00:18:06.436Z,1025.22901508
2018-10-06T00:18:18.598Z,1025.22901508
2018-10-06T00:18:30.752Z,1025.22901508
2018-10-06T00:18:42.902Z,1025.22901508
2018-10-06T00:18:55.047Z,1025.22901508
2018-10-06T00:19:07.196Z,1025.22901508
2018-10-06T00:19:19.369Z,1025.22901508
2018-10-06T00:19:31.542Z,1025.22901508
2018-10-06T00:19:43.730Z,1025.22901508
2018-10-06T00:19:56.024Z,1025.22901508
2018-10-06T00:20:08.221Z,1025.1951512
2018-10-06T00:20:20.385Z,1025.1951512
2018-10-06T00:20:32.565Z,1025.1951512
2018-10-06T00:20:44.732Z,1025.1951512
2018-10-06T00:20:56.907Z,1025.1951512
2018-10-06T00:21:09.091Z,1025.29674284
2018-10-06T00:21:21.272Z,1025.29674284
2018-10-06T00:21:33.598Z,1025.29674284
2018-10-06T00:21:45.763Z,1025.29674284
2018-10-06T00:21:58.284Z,1025.29674284
2018-10-06T00:22:10.461Z,1025.26287896
2018-10-06T00:22:22.627Z,1025.26287896
2018-10-06T00:22:34.782Z,1025.26287896
2018-10-06T00:22:46.942Z,1025.26287896
2018-10-06T00:22:59.111Z,1025.22901508
2018-10-06T00:23:11.276Z,1025.22901508
2018-10-06T00:23:23.433Z,1025.22901508
2018-10-06T00:23:35.617Z,1025.22901508
2018-10-06T00:23:47.799Z,1025.22901508
2018-10-06T00:24:00.081Z,1025.12742344
2018-10-06T00:24:12.403Z,1025.12742344
2018-10-06T00:24:24.564Z,1025.12742344
2018-10-06T00:24:36.712Z,1025.12742344
2018-10-06T00:24:48.865Z,1025.12742344
2018-10-06T00:25:01.037Z,1025.12742344
2018-10-06T00:25:13.188Z,1025.12742344
2018-10-06T00:25:25.345Z,1025.12742344
2018-10-06T00:25:37.504Z,1025.12742344
2018-10-06T00:25:49.664Z,1025.12742344
2018-10-06T00:26:01.814Z,1025.12742344
2018-10-06T00:26:13.988Z,1025.12742344
2018-10-06T00:26:26.154Z,1025.12742344
2018-10-06T00:26:38.311Z,1025.12742344
2018-10-06T00:26:50.465Z,1025.12742344
2018-10-06T00:27:02.658Z,1025.1951512
2018-10-06T00:27:14.862Z,1025.1951512
2018-10-06T00:27:27.023Z,1025.1951512
2018-10-06T00:27:39.177Z,1025.1951512
2018-10-06T00:27:51.337Z,1025.1951512
2018-10-06T00:28:03.492Z,1025.09355956
2018-10-06T00:28:15.644Z,1025.09355956
2018-10-06T00:28:27.801Z,1025.09355956
2018-10-06T00:28:39.954Z,1025.09355956
2018-10-06T00:28:52.107Z,1025.09355956
2018-10-06T00:29:04.311Z,1025.12742344
2018-10-06T00:29:16.500Z,1025.12742344
2018-10-06T00:29:28.698Z,1025.12742344
2018-10-06T00:29:40.845Z,1025.12742344
2018-10-06T00:29:52.995Z,1025.12742344
2018-10-06T00:30:05.142Z,1025.09355956
2018-10-06T00:30:17.303Z,1025.09355956
2018-10-06T00:30:29.964Z,1025.09355956
2018-10-06T00:30:42.524Z,1025.09355956
2018-10-06T00:30:54.695Z,1025.09355956
2018-10-06T00:31:06.866Z,1025.16128732
2018-10-06T00:31:19.013Z,1025.16128732
2018-10-06T00:31:31.166Z,1025.16128732
2018-10-06T00:31:43.375Z,1025.16128732
2018-10-06T00:31:55.572Z,1025.16128732
2018-10-06T00:32:07.811Z,1025.12742344
2018-10-06T00:32:20.031Z,1025.12742344
2018-10-06T00:32:32.515Z,1025.12742344
2018-10-06T00:32:44.949Z,1025.12742344
2018-10-06T00:32:57.320Z,1025.12742344
2018-10-06T00:33:09.469Z,1025.12742344
2018-10-06T00:33:21.699Z,1025.12742344
2018-10-06T00:33:33.848Z,1025.12742344
2018-10-06T00:33:46.053Z,1025.12742344
2018-10-06T00:33:58.270Z,1025.12742344
2018-10-06T00:34:10.412Z,1025.05969567
2018-10-06T00:34:22.603Z,1025.05969567
2018-10-06T00:34:34.742Z,1025.05969567
2018-10-06T00:34:46.900Z,1025.05969567
2018-10-06T00:34:59.072Z,1025.05969567
2018-10-06T00:35:11.232Z,1025.05969567
2018-10-06T00:35:23.466Z,1025.05969567
2018-10-06T00:35:35.976Z,1025.05969567
2018-10-06T00:35:48.145Z,1025.05969567
2018-10-06T00:36:00.306Z,1025.09355956
2018-10-06T00:36:12.473Z,1025.09355956
2018-10-06T00:36:24.620Z,1025.09355956
2018-10-06T00:36:36.776Z,1025.09355956
2018-10-06T00:36:49.113Z,1025.09355956
2018-10-06T00:37:01.285Z,1025.09355956
2018-10-06T00:37:13.446Z,1025.09355956
2018-10-06T00:37:25.680Z,1025.09355956
2018-10-06T00:37:37.856Z,1025.09355956
2018-10-06T00:37:50.156Z,1025.09355956
2018-10-06T00:38:02.319Z,1025.12742344
2018-10-06T00:38:14.480Z,1025.12742344
2018-10-06T00:38:26.632Z,1025.12742344
2018-10-06T00:38:38.794Z,1025.12742344
2018-10-06T00:38:50.965Z,1025.12742344
2018-10-06T00:39:03.135Z,1025.16128732
2018-10-06T00:39:15.292Z,1025.16128732
2018-10-06T00:39:27.515Z,1025.16128732
2018-10-06T00:39:39.770Z,1025.16128732
2018-10-06T00:39:52.084Z,1025.16128732
2018-10-06T00:40:04.303Z,1025.05969567
2018-10-06T00:40:16.487Z,1025.05969567
2018-10-06T00:40:28.690Z,1025.05969567
2018-10-06T00:40:40.853Z,1025.05969567
2018-10-06T00:40:53.010Z,1025.05969567
2018-10-06T00:41:05.160Z,1025.05969567
2018-10-06T00:41:17.322Z,1025.05969567
2018-10-06T00:41:29.473Z,1025.05969567
2018-10-06T00:41:41.632Z,1025.05969567
2018-10-06T00:41:53.805Z,1025.05969567
2018-10-06T00:42:05.963Z,1025.05969567
2018-10-06T00:42:18.110Z,1025.05969567
2018-10-06T00:42:30.294Z,1025.05969567
2018-10-06T00:42:42.458Z,1025.05969567
2018-10-06T00:42:54.703Z,1025.05969567
2018-10-06T00:43:06.893Z,1025.05969567
2018-10-06T00:43:19.058Z,1025.05969567
2018-10-06T00:43:31.207Z,1025.05969567
2018-10-06T00:43:43.409Z,1025.05969567
2018-10-06T00:43:55.588Z,1025.05969567
2018-10-06T00:44:08.547Z,1025.12742344
2018-10-06T00:44:20.695Z,1025.12742344
2018-10-06T00:44:32.907Z,1025.12742344
2018-10-06T00:44:45.069Z,1025.12742344
2018-10-06T00:44:57.236Z,1025.12742344
2018-10-06T00:45:09.555Z,1025.12742344
2018-10-06T00:45:21.707Z,1025.12742344
2018-10-06T00:45:33.858Z,1025.12742344
2018-10-06T00:45:46.037Z,1025.12742344
2018-10-06T00:45:58.216Z,1025.12742344
2018-10-06T00:46:10.366Z,1025.02583179
2018-10-06T00:46:22.515Z,1025.02583179
2018-10-06T00:46:34.694Z,1025.02583179
2018-10-06T00:46:46.842Z,1025.02583179
2018-10-06T00:46:59.012Z,1024.95810403
2018-10-06T00:47:11.688Z,1024.95810403
2018-10-06T00:47:25.441Z,1024.95810403
2018-10-06T00:47:37.624Z,1024.95810403
2018-10-06T00:47:49.789Z,1024.95810403
2018-10-06T00:48:01.941Z,1025.02583179
2018-10-06T00:48:14.125Z,1025.02583179
2018-10-06T00:48:26.294Z,1025.02583179
2018-10-06T00:48:38.477Z,1025.02583179
2018-10-06T00:48:50.624Z,1025.02583179
2018-10-06T00:49:02.808Z,1024.95810403
2018-10-06T00:49:14.964Z,1024.95810403
2018-10-06T00:49:27.131Z,1024.95810403
2018-10-06T00:49:39.371Z,1024.95810403
2018-10-06T00:49:51.528Z,1024.95810403
2018-10-06T00:50:03.991Z,1024.95810403
2018-10-06T00:50:16.136Z,1024.95810403
2018-10-06T00:50:28.304Z,1024.95810403
2018-10-06T00:50:40.459Z,1024.95810403
2018-10-06T00:50:52.628Z,1024.95810403
2018-10-06T00:51:04.791Z,1024.95810403
2018-10-06T00:51:16.950Z,1024.95810403
2018-10-06T00:51:29.106Z,1024.95810403
2018-10-06T00:51:41.282Z,1024.95810403
2018-10-06T00:51:53.438Z,1024.95810403
2018-10-06T00:52:05.603Z,1024.99196791
2018-10-06T00:52:17.756Z,1024.99196791
2018-10-06T00:52:29.909Z,1024.99196791
2018-10-06T00:52:42.055Z,1024.99196791
2018-10-06T00:52:54.209Z,1024.99196791
2018-10-06T00:53:06.373Z,1024.95810403
2018-10-06T00:53:18.674Z,1024.95810403
2018-10-06T00:53:30.832Z,1024.95810403
2018-10-06T00:53:42.990Z,1024.95810403
2018-10-06T00:53:55.135Z,1024.95810403
2018-10-06T00:54:07.309Z,1024.92424015
2018-10-06T00:54:19.459Z,1024.92424015
2018-10-06T00:54:31.618Z,1024.92424015
2018-10-06T00:54:43.768Z,1024.92424015
2018-10-06T00:54:55.939Z,1024.92424015
2018-10-06T00:55:08.097Z,1024.95810403
2018-10-06T00:55:20.251Z,1024.95810403
2018-10-06T00:55:32.423Z,1024.95810403
2018-10-06T00:55:44.602Z,1024.95810403
2018-10-06T00:55:57.396Z,1024.95810403
2018-10-06T00:56:09.580Z,1024.89037627
2018-10-06T00:56:21.867Z,1024.89037627
2018-10-06T00:56:34.111Z,1024.89037627
2018-10-06T00:56:46.291Z,1024.89037627
2018-10-06T00:56:58.630Z,1024.8226485
2018-10-06T00:57:10.788Z,1024.8226485
2018-10-06T00:57:22.948Z,1024.8226485
2018-10-06T00:57:35.222Z,1024.8226485
2018-10-06T00:57:47.396Z,1024.8226485
2018-10-06T00:57:59.560Z,1024.85651238
2018-10-06T00:58:11.703Z,1024.85651238
2018-10-06T00:58:23.902Z,1024.85651238
2018-10-06T00:58:36.095Z,1024.85651238
2018-10-06T00:58:48.255Z,1024.85651238
2018-10-06T00:59:00.419Z,1024.89037627
2018-10-06T00:59:12.567Z,1024.89037627
2018-10-06T00:59:24.743Z,1024.89037627
2018-10-06T00:59:36.909Z,1024.89037627
2018-10-06T00:59:49.064Z,1024.89037627
2018-10-06T01:00:01.303Z,1024.8226485
2018-10-06T01:00:13.478Z,1024.8226485
2018-10-06T01:00:25.803Z,1024.8226485
2018-10-06T01:00:37.982Z,1024.8226485
2018-10-06T01:00:50.154Z,1024.8226485
2018-10-06T01:01:02.339Z,1024.72105686
2018-10-06T01:01:14.553Z,1024.72105686
2018-10-06T01:01:26.889Z,1024.72105686
2018-10-06T01:01:39.091Z,1024.72105686
2018-10-06T01:01:51.258Z,1024.72105686
2018-10-06T01:02:03.434Z,1024.85651238
2018-10-06T01:02:15.652Z,1024.85651238
2018-10-06T01:02:27.855Z,1024.85651238
2018-10-06T01:02:40.026Z,1024.85651238
2018-10-06T01:02:52.217Z,1024.85651238
2018-10-06T01:03:04.441Z,1024.8226485
2018-10-06T01:03:16.618Z,1024.8226485
2018-10-06T01:03:28.793Z,1024.8226485
2018-10-06T01:03:40.960Z,1024.8226485
2018-10-06T01:03:53.192Z,1024.8226485
2018-10-06T01:04:05.363Z,1024.8226485
2018-10-06T01:04:17.530Z,1024.8226485
2018-10-06T01:04:29.705Z,1024.8226485
2018-10-06T01:04:41.877Z,1024.8226485
2018-10-06T01:04:54.206Z,1024.8226485
2018-10-06T01:05:06.389Z,1024.8226485
2018-10-06T01:05:18.601Z,1024.8226485
2018-10-06T01:05:30.766Z,1024.8226485
2018-10-06T01:05:42.933Z,1024.8226485
2018-10-06T01:05:55.083Z,1024.8226485
2018-10-06T01:06:07.245Z,1024.89037627
2018-10-06T01:06:19.440Z,1024.89037627
2018-10-06T01:06:31.657Z,1024.89037627
2018-10-06T01:06:43.852Z,1024.89037627
2018-10-06T01:06:56.093Z,1024.89037627
2018-10-06T01:07:08.264Z,1024.85651238
2018-10-06T01:07:20.442Z,1024.85651238
2018-10-06T01:07:32.623Z,1024.85651238
2018-10-06T01:07:44.840Z,1024.85651238
2018-10-06T01:07:57.083Z,1024.85651238
2018-10-06T01:08:09.284Z,1024.78878462
2018-10-06T01:08:21.464Z,1024.78878462
2018-10-06T01:08:33.639Z,1024.78878462
2018-10-06T01:08:45.785Z,1024.78878462
2018-10-06T01:08:57.942Z,1024.78878462
2018-10-06T01:09:10.121Z,1024.8226485
2018-10-06T01:09:22.304Z,1024.8226485
2018-10-06T01:09:34.457Z,1024.8226485
2018-10-06T01:09:46.743Z,1024.8226485
2018-10-06T01:09:58.916Z,1024.75492074
2018-10-06T01:10:11.083Z,1024.75492074
2018-10-06T01:10:23.259Z,1024.75492074
2018-10-06T01:10:35.435Z,1024.75492074
2018-10-06T01:10:47.639Z,1024.75492074
2018-10-06T01:10:59.849Z,1024.75492074
2018-10-06T01:11:12.021Z,1024.75492074
2018-10-06T01:11:24.191Z,1024.75492074
2018-10-06T01:11:36.344Z,1024.75492074
2018-10-06T01:11:48.503Z,1024.75492074
2018-10-06T01:12:00.660Z,1024.72105686
2018-10-06T01:12:12.832Z,1024.72105686
2018-10-06T01:12:25.006Z,1024.72105686
2018-10-06T01:12:37.695Z,1024.72105686
2018-10-06T01:12:49.866Z,1024.72105686
2018-10-06T01:13:02.037Z,1024.75492074
2018-10-06T01:13:14.208Z,1024.75492074
2018-10-06T01:13:26.363Z,1024.75492074
2018-10-06T01:13:38.603Z,1024.75492074
2018-10-06T01:13:50.760Z,1024.75492074
2018-10-06T01:14:02.920Z,1024.75492074
2018-10-06T01:14:15.066Z,1024.75492074
2018-10-06T01:14:27.226Z,1024.75492074
2018-10-06T01:14:39.489Z,1024.75492074
2018-10-06T01:14:51.654Z,1024.75492074
2018-10-06T01:15:03.845Z,1024.75492074
2018-10-06T01:15:16.008Z,1024.75492074
2018-10-06T01:15:28.203Z,1024.75492074
2018-10-06T01:15:40.358Z,1024.75492074
2018-10-06T01:15:52.572Z,1024.75492074
2018-10-06T01:16:04.738Z,1024.65332909
2018-10-06T01:16:16.888Z,1024.65332909
2018-10-06T01:16:29.051Z,1024.65332909
2018-10-06T01:16:41.238Z,1024.65332909
2018-10-06T01:16:53.394Z,1024.65332909
2018-10-06T01:17:05.560Z,1024.72105686
2018-10-06T01:17:17.869Z,1024.72105686
2018-10-06T01:17:30.039Z,1024.72105686
2018-10-06T01:17:42.187Z,1024.72105686
2018-10-06T01:17:54.355Z,1024.72105686
2018-10-06T01:18:06.511Z,1024.65332909
2018-10-06T01:18:18.712Z,1024.65332909
2018-10-06T01:18:30.868Z,1024.65332909
2018-10-06T01:18:43.299Z,1024.65332909
2018-10-06T01:18:55.461Z,1024.65332909
2018-10-06T01:19:07.627Z,1024.72105686
2018-10-06T01:19:19.791Z,1024.72105686
2018-10-06T01:19:31.963Z,1024.72105686
2018-10-06T01:19:44.150Z,1024.72105686
2018-10-06T01:19:56.435Z,1024.72105686
2018-10-06T01:20:08.610Z,1024.65332909
2018-10-06T01:20:20.761Z,1024.65332909
2018-10-06T01:20:32.936Z,1024.65332909
2018-10-06T01:20:45.087Z,1024.65332909
2018-10-06T01:20:57.244Z,1024.65332909
2018-10-06T01:21:09.406Z,1024.65332909
2018-10-06T01:21:21.596Z,1024.65332909
2018-10-06T01:21:33.945Z,1024.65332909
2018-10-06T01:21:46.112Z,1024.65332909
2018-10-06T01:21:58.319Z,1024.65332909
2018-10-06T01:22:10.489Z,1024.61946521
2018-10-06T01:22:22.675Z,1024.61946521
2018-10-06T01:22:34.858Z,1024.61946521
2018-10-06T01:22:47.025Z,1024.61946521
2018-10-06T01:22:59.206Z,1024.61946521
2018-10-06T01:23:11.381Z,1024.61946521
2018-10-06T01:23:23.541Z,1024.61946521
2018-10-06T01:23:35.721Z,1024.61946521
2018-10-06T01:23:47.902Z,1024.61946521
2018-10-06T01:24:00.219Z,1024.55173745
2018-10-06T01:24:12.479Z,1024.55173745
2018-10-06T01:24:24.645Z,1024.55173745
2018-10-06T01:24:36.814Z,1024.55173745
2018-10-06T01:24:48.967Z,1024.55173745
2018-10-06T01:25:01.134Z,1024.51787357
2018-10-06T01:25:13.292Z,1024.51787357
2018-10-06T01:25:25.467Z,1024.51787357
2018-10-06T01:25:37.644Z,1024.51787357
2018-10-06T01:25:49.808Z,1024.51787357
2018-10-06T01:26:01.967Z,1024.51787357
2018-10-06T01:26:14.131Z,1024.51787357
2018-10-06T01:26:26.288Z,1024.51787357
2018-10-06T01:26:38.437Z,1024.51787357
2018-10-06T01:26:50.616Z,1024.51787357
2018-10-06T01:27:02.788Z,1024.51787357
2018-10-06T01:27:14.939Z,1024.51787357
2018-10-06T01:27:27.116Z,1024.51787357
2018-10-06T01:27:39.275Z,1024.51787357
2018-10-06T01:27:51.440Z,1024.51787357
2018-10-06T01:28:03.615Z,1024.58560133
2018-10-06T01:28:15.789Z,1024.58560133
2018-10-06T01:28:27.971Z,1024.58560133
2018-10-06T01:28:40.135Z,1024.58560133
2018-10-06T01:28:52.285Z,1024.58560133
2018-10-06T01:29:04.480Z,1024.51787357
2018-10-06T01:29:16.618Z,1024.51787357
2018-10-06T01:29:28.830Z,1024.51787357
2018-10-06T01:29:40.995Z,1024.51787357
2018-10-06T01:29:53.259Z,1024.51787357
2018-10-06T01:30:05.451Z,1024.48400969
2018-10-06T01:30:17.615Z,1024.48400969
2018-10-06T01:30:29.865Z,1024.48400969
2018-10-06T01:30:42.175Z,1024.48400969
2018-10-06T01:30:54.354Z,1024.48400969
2018-10-06T01:31:06.526Z,1024.51787357
2018-10-06T01:31:18.672Z,1024.51787357
2018-10-06T01:31:30.844Z,1024.51787357
2018-10-06T01:31:43.067Z,1024.51787357
2018-10-06T01:31:55.264Z,1024.51787357
2018-10-06T01:32:07.451Z,1024.61946521
2018-10-06T01:32:19.615Z,1024.61946521
2018-10-06T01:32:31.758Z,1024.61946521
2018-10-06T01:32:45.301Z,1024.61946521
2018-10-06T01:32:57.471Z,1024.61946521
2018-10-06T01:33:09.625Z,1024.58560133
2018-10-06T01:33:21.827Z,1024.58560133
2018-10-06T01:33:33.994Z,1024.58560133
2018-10-06T01:33:46.140Z,1024.58560133
2018-10-06T01:33:58.314Z,1024.58560133
2018-10-06T01:34:10.521Z,1024.51787357
2018-10-06T01:34:22.694Z,1024.51787357
2018-10-06T01:34:34.845Z,1024.51787357
2018-10-06T01:34:47.023Z,1024.51787357
2018-10-06T01:34:59.188Z,1024.51787357
2018-10-06T01:35:11.378Z,1024.51787357
2018-10-06T01:35:23.664Z,1024.51787357
2018-10-06T01:35:35.994Z,1024.51787357
2018-10-06T01:35:48.163Z,1024.51787357
2018-10-06T01:36:00.331Z,1024.55173745
2018-10-06T01:36:12.489Z,1024.55173745
2018-10-06T01:36:24.715Z,1024.55173745
2018-10-06T01:36:36.879Z,1024.55173745
2018-10-06T01:36:49.126Z,1024.55173745
2018-10-06T01:37:01.287Z,1024.55173745
2018-10-06T01:37:13.455Z,1024.55173745
2018-10-06T01:37:25.635Z,1024.55173745
2018-10-06T01:37:37.804Z,1024.55173745
2018-10-06T01:37:49.970Z,1024.55173745
2018-10-06T01:38:02.161Z,1024.55173745
2018-10-06T01:38:14.345Z,1024.55173745
2018-10-06T01:38:26.502Z,1024.55173745
2018-10-06T01:38:38.663Z,1024.55173745
2018-10-06T01:38:50.834Z,1024.55173745
2018-10-06T01:39:03.028Z,1024.51787357
2018-10-06T01:39:15.183Z,1024.51787357
2018-10-06T01:39:27.364Z,1024.51787357
2018-10-06T01:39:39.749Z,1024.51787357
2018-10-06T01:39:52.135Z,1024.51787357
2018-10-06T01:40:04.296Z,1024.58560133
2018-10-06T01:40:16.462Z,1024.58560133
2018-10-06T01:40:28.605Z,1024.58560133
2018-10-06T01:40:40.926Z,1024.58560133
2018-10-06T01:40:53.097Z,1024.58560133
2018-10-06T01:41:05.265Z,1024.55173745
2018-10-06T01:41:17.433Z,1024.55173745
2018-10-06T01:41:29.579Z,1024.55173745
2018-10-06T01:41:41.743Z,1024.55173745
2018-10-06T01:41:53.956Z,1024.55173745
2018-10-06T01:42:06.128Z,1024.58560133
2018-10-06T01:42:18.286Z,1024.58560133
2018-10-06T01:42:30.455Z,1024.58560133
2018-10-06T01:42:42.667Z,1024.58560133
2018-10-06T01:42:55.060Z,1024.58560133
2018-10-06T01:43:07.218Z,1024.51787357
2018-10-06T01:43:19.375Z,1024.51787357
2018-10-06T01:43:31.549Z,1024.51787357
2018-10-06T01:43:43.693Z,1024.51787357
2018-10-06T01:43:55.837Z,1024.51787357
2018-10-06T01:44:08.062Z,1024.51787357
2018-10-06T01:44:20.230Z,1024.51787357
2018-10-06T01:44:32.372Z,1024.51787357
2018-10-06T01:44:44.518Z,1024.51787357
2018-10-06T01:44:56.727Z,1024.51787357
2018-10-06T01:45:09.292Z,1024.45014581
2018-10-06T01:45:21.483Z,1024.45014581
2018-10-06T01:45:33.692Z,1024.45014581
2018-10-06T01:45:45.840Z,1024.45014581
2018-10-06T01:45:57.980Z,1024.45014581
2018-10-06T01:46:10.134Z,1024.51787357
2018-10-06T01:46:22.269Z,1024.51787357
2018-10-06T01:46:34.426Z,1024.51787357
2018-10-06T01:46:46.600Z,1024.51787357
2018-10-06T01:46:58.837Z,1024.55173745
2018-10-06T01:47:11.082Z,1024.55173745
2018-10-06T01:47:23.336Z,1024.55173745
2018-10-06T01:47:35.566Z,1024.55173745
2018-10-06T01:47:47.805Z,1024.55173745
2018-10-06T01:48:00.035Z,1024.45014581
2018-10-06T01:48:12.225Z,1024.45014581
2018-10-06T01:48:24.371Z,1024.45014581
2018-10-06T01:48:36.514Z,1024.45014581
2018-10-06T01:48:48.653Z,1024.45014581
2018-10-06T01:49:00.811Z,1024.38241804
2018-10-06T01:49:12.967Z,1024.38241804
2018-10-06T01:49:25.286Z,1024.38241804
2018-10-06T01:49:37.612Z,1024.38241804
2018-10-06T01:49:50.338Z,1024.38241804
2018-10-06T01:50:03.858Z,1024.45014581
2018-10-06T01:50:16.405Z,1024.45014581
2018-10-06T01:50:28.715Z,1024.45014581
2018-10-06T01:50:40.876Z,1024.45014581
2018-10-06T01:50:53.207Z,1024.45014581
2018-10-06T01:51:06.287Z,1024.45014581
2018-10-06T01:51:19.230Z,1024.45014581
2018-10-06T01:51:31.405Z,1024.45014581
2018-10-06T01:51:43.570Z,1024.45014581
2018-10-06T01:51:55.765Z,1024.45014581
2018-10-06T01:52:07.938Z,1024.41628192
2018-10-06T01:52:20.109Z,1024.41628192
2018-10-06T01:52:32.263Z,1024.41628192
2018-10-06T01:52:44.441Z,1024.41628192
2018-10-06T01:52:56.611Z,1024.41628192
2018-10-06T01:53:08.794Z,1024.41628192
2018-10-06T01:53:21.138Z,1024.41628192
2018-10-06T01:53:33.319Z,1024.41628192
2018-10-06T01:53:45.491Z,1024.41628192
2018-10-06T01:53:57.658Z,1024.41628192
2018-10-06T01:54:09.812Z,1024.38241804
2018-10-06T01:54:22.019Z,1024.38241804
2018-10-06T01:54:34.384Z,1024.38241804
2018-10-06T01:54:46.552Z,1024.38241804
2018-10-06T01:54:58.700Z,1024.34855416
2018-10-06T01:55:10.871Z,1024.34855416
2018-10-06T01:55:23.019Z,1024.34855416
2018-10-06T01:55:35.181Z,1024.34855416
2018-10-06T01:55:47.330Z,1024.34855416
2018-10-06T01:55:59.558Z,1024.34855416
2018-10-06T01:56:11.718Z,1024.34855416
2018-10-06T01:56:23.893Z,1024.34855416
2018-10-06T01:56:36.073Z,1024.34855416
2018-10-06T01:56:48.234Z,1024.34855416
2018-10-06T01:57:00.389Z,1024.38241804
2018-10-06T01:57:12.533Z,1024.38241804
2018-10-06T01:57:24.735Z,1024.38241804
2018-10-06T01:57:36.913Z,1024.38241804
2018-10-06T01:57:49.074Z,1024.38241804
2018-10-06T01:58:01.215Z,1024.31469028
2018-10-06T01:58:13.373Z,1024.31469028
2018-10-06T01:58:25.545Z,1024.31469028
2018-10-06T01:58:37.733Z,1024.31469028
2018-10-06T01:58:49.892Z,1024.31469028
2018-10-06T01:59:02.059Z,1024.34855416
2018-10-06T01:59:14.250Z,1024.34855416
2018-10-06T01:59:26.422Z,1024.34855416
2018-10-06T01:59:38.944Z,1024.34855416
2018-10-06T01:59:51.116Z,1024.34855416
2018-10-06T02:00:03.592Z,1024.31469028
2018-10-06T02:00:15.823Z,1024.31469028
2018-10-06T02:00:28.150Z,1024.31469028
2018-10-06T02:00:40.315Z,1024.31469028
2018-10-06T02:00:52.472Z,1024.31469028
2018-10-06T02:01:04.654Z,1024.34855416
2018-10-06T02:01:16.805Z,1024.34855416
2018-10-06T02:01:29.166Z,1024.34855416
2018-10-06T02:01:41.361Z,1024.34855416
2018-10-06T02:01:53.542Z,1024.34855416
2018-10-06T02:02:05.734Z,1024.2808264
2018-10-06T02:02:17.895Z,1024.2808264
2018-10-06T02:02:30.058Z,1024.2808264
2018-10-06T02:02:42.224Z,1024.2808264
2018-10-06T02:02:54.452Z,1024.2808264
2018-10-06T02:03:06.654Z,1024.24696252
2018-10-06T02:03:19.011Z,1024.24696252
2018-10-06T02:03:31.228Z,1024.24696252
2018-10-06T02:03:43.435Z,1024.24696252
2018-10-06T02:03:55.734Z,1024.24696252
2018-10-06T02:04:07.917Z,1024.21309863
2018-10-06T02:04:20.090Z,1024.21309863
2018-10-06T02:04:32.276Z,1024.21309863
2018-10-06T02:04:44.453Z,1024.21309863
2018-10-06T02:04:56.828Z,1024.21309863
2018-10-06T02:05:09.001Z,1024.2808264